sensor_id;sensor_type;location;lat;lon;timestamp;temperature;humidity
67279;DHT22;54193;53.746;10.058;2022-12-07T00:01:10;2.04;96.26
67279;DHT22;54193;53.746;10.058;2022-12-07T00:04:01;2.24;96.66
67279;DHT22;54193;53.746;10.058;2022-12-07T00:06:52;2.37;96.62
67279;DHT22;54193;53.746;10.058;2022-12-07T00:09:38;2.45;96.57
67279;DHT22;54193;53.746;10.058;2022-12-07T00:12:24;2.50;96.55
67279;DHT22;54193;53.746;10.058;2022-12-07T00:15:10;2.52;96.44
67279;DHT22;54193;53.746;10.058;2022-12-07T00:17:55;2.56;96.55
67279;DHT22;54193;53.746;10.058;2022-12-07T00:20:41;2.69;96.57
67279;DHT22;54193;53.746;10.058;2022-12-07T00:23:26;2.72;96.60
67279;DHT22;54193;53.746;10.058;2022-12-07T00:26:23;2.75;96.55
67279;DHT22;54193;53.746;10.058;2022-12-07T00:29:15;2.62;96.38
67279;DHT22;54193;53.746;10.058;2022-12-07T00:32:01;2.45;96.28
67279;DHT22;54193;53.746;10.058;2022-12-07T00:34:46;2.45;96.43
67279;DHT22;54193;53.746;10.058;2022-12-07T00:37:32;2.44;96.39
67279;DHT22;54193;53.746;10.058;2022-12-07T00:40:17;2.53;96.45
67279;DHT22;54193;53.746;10.058;2022-12-07T00:43:03;2.56;96.62
67279;DHT22;54193;53.746;10.058;2022-12-07T00:45:49;2.69;96.63
67279;DHT22;54193;53.746;10.058;2022-12-07T00:48:34;2.72;96.69
67279;DHT22;54193;53.746;10.058;2022-12-07T00:51:22;2.73;96.65
67279;DHT22;54193;53.746;10.058;2022-12-07T00:54:08;2.77;96.62
67279;DHT22;54193;53.746;10.058;2022-12-07T00:56:54;2.77;96.61
67279;DHT22;54193;53.746;10.058;2022-12-07T00:59:40;2.75;96.51
67279;DHT22;54193;53.746;10.058;2022-12-07T01:02:25;2.76;96.60
67279;DHT22;54193;53.746;10.058;2022-12-07T01:05:11;2.77;96.60
67279;DHT22;54193;53.746;10.058;2022-12-07T01:07:57;2.72;96.48
67279;DHT22;54193;53.746;10.058;2022-12-07T01:10:42;2.63;96.44
67279;DHT22;54193;53.746;10.058;2022-12-07T01:13:28;2.62;96.46
67279;DHT22;54193;53.746;10.058;2022-12-07T01:16:15;2.56;96.46
67279;DHT22;54193;53.746;10.058;2022-12-07T01:19:02;2.52;96.51
67279;DHT22;54193;53.746;10.058;2022-12-07T01:21:49;2.52;96.54
67279;DHT22;54193;53.746;10.058;2022-12-07T01:24:35;2.52;96.51
67279;DHT22;54193;53.746;10.058;2022-12-07T01:27:21;2.48;96.51
67279;DHT22;54193;53.746;10.058;2022-12-07T01:30:07;2.35;96.39
67279;DHT22;54193;53.746;10.058;2022-12-07T01:32:53;2.29;96.54
67279;DHT22;54193;53.746;10.058;2022-12-07T01:35:38;2.22;96.63
67279;DHT22;54193;53.746;10.058;2022-12-07T01:38:24;2.14;96.41
67279;DHT22;54193;53.746;10.058;2022-12-07T01:41:10;2.13;96.58
67279;DHT22;54193;53.746;10.058;2022-12-07T01:47:06;2.32;96.76
67279;DHT22;54193;53.746;10.058;2022-12-07T01:49:52;2.34;96.79
67279;DHT22;54193;53.746;10.058;2022-12-07T01:52:39;2.37;96.74
67279;DHT22;54193;53.746;10.058;2022-12-07T01:55:25;2.37;96.70
67279;DHT22;54193;53.746;10.058;2022-12-07T01:58:12;2.28;96.51
67279;DHT22;54193;53.746;10.058;2022-12-07T02:00:58;2.21;96.62
67279;DHT22;54193;53.746;10.058;2022-12-07T02:03:45;2.29;96.68
67279;DHT22;54193;53.746;10.058;2022-12-07T02:06:31;2.35;96.73
67279;DHT22;54193;53.746;10.058;2022-12-07T02:09:16;2.42;96.82
67279;DHT22;54193;53.746;10.058;2022-12-07T02:12:02;2.39;96.64
67279;DHT22;54193;53.746;10.058;2022-12-07T02:14:50;2.38;96.62
67279;DHT22;54193;53.746;10.058;2022-12-07T02:18:07;2.41;96.74
67279;DHT22;54193;53.746;10.058;2022-12-07T02:24:29;2.27;96.54
67279;DHT22;54193;53.746;10.058;2022-12-07T02:30:31;2.28;96.69
67279;DHT22;54193;53.746;10.058;2022-12-07T02:33:27;2.37;96.61
67279;DHT22;54193;53.746;10.058;2022-12-07T02:36:22;2.39;96.59
67279;DHT22;54193;53.746;10.058;2022-12-07T02:39:16;2.34;96.39
67279;DHT22;54193;53.746;10.058;2022-12-07T02:42:12;2.21;96.24
67279;DHT22;54193;53.746;10.058;2022-12-07T02:45:00;2.11;96.13
67279;DHT22;54193;53.746;10.058;2022-12-07T02:47:48;2.07;96.17
67279;DHT22;54193;53.746;10.058;2022-12-07T02:50:36;1.97;96.15
67279;DHT22;54193;53.746;10.058;2022-12-07T02:53:32;1.89;96.06
67279;DHT22;54193;53.746;10.058;2022-12-07T02:59:33;1.74;96.12
67279;DHT22;54193;53.746;10.058;2022-12-07T03:05:32;1.59;96.17
67279;DHT22;54193;53.746;10.058;2022-12-07T03:08:46;1.59;96.27
67279;DHT22;54193;53.746;10.058;2022-12-07T03:11:45;1.56;96.25
67279;DHT22;54193;53.746;10.058;2022-12-07T03:14:35;1.51;96.21
67279;DHT22;54193;53.746;10.058;2022-12-07T03:17:27;1.49;96.27
67279;DHT22;54193;53.746;10.058;2022-12-07T03:20:16;1.39;96.15
67279;DHT22;54193;53.746;10.058;2022-12-07T03:23:04;1.41;96.27
67279;DHT22;54193;53.746;10.058;2022-12-07T03:25:56;1.39;96.34
67279;DHT22;54193;53.746;10.058;2022-12-07T03:28:50;1.34;96.28
67279;DHT22;54193;53.746;10.058;2022-12-07T03:31:43;1.31;96.27
67279;DHT22;54193;53.746;10.058;2022-12-07T03:34:50;1.36;96.49
67279;DHT22;54193;53.746;10.058;2022-12-07T03:37:52;1.38;96.41
67279;DHT22;54193;53.746;10.058;2022-12-07T03:40:49;1.35;96.42
67279;DHT22;54193;53.746;10.058;2022-12-07T03:43:37;1.31;96.41
67279;DHT22;54193;53.746;10.058;2022-12-07T03:49:43;1.36;96.52
67279;DHT22;54193;53.746;10.058;2022-12-07T03:52:39;1.28;96.37
67279;DHT22;54193;53.746;10.058;2022-12-07T03:55:37;1.27;96.34
67279;DHT22;54193;53.746;10.058;2022-12-07T03:58:25;1.28;96.28
67279;DHT22;54193;53.746;10.058;2022-12-07T04:01:11;1.21;96.36
67279;DHT22;54193;53.746;10.058;2022-12-07T04:03:56;1.23;96.42
67279;DHT22;54193;53.746;10.058;2022-12-07T04:06:42;1.18;96.30
67279;DHT22;54193;53.746;10.058;2022-12-07T04:09:28;1.14;96.28
67279;DHT22;54193;53.746;10.058;2022-12-07T04:12:13;1.09;96.39
67279;DHT22;54193;53.746;10.058;2022-12-07T04:14:59;1.08;96.34
67279;DHT22;54193;53.746;10.058;2022-12-07T04:17:45;0.97;96.24
67279;DHT22;54193;53.746;10.058;2022-12-07T04:20:30;0.88;96.11
67279;DHT22;54193;53.746;10.058;2022-12-07T04:23:16;0.81;96.19
67279;DHT22;54193;53.746;10.058;2022-12-07T04:26:02;0.81;96.26
67279;DHT22;54193;53.746;10.058;2022-12-07T04:28:47;0.79;96.23
67279;DHT22;54193;53.746;10.058;2022-12-07T04:31:33;0.77;96.25
67279;DHT22;54193;53.746;10.058;2022-12-07T04:34:20;0.76;96.18
67279;DHT22;54193;53.746;10.058;2022-12-07T04:37:05;0.73;96.36
67279;DHT22;54193;53.746;10.058;2022-12-07T04:39:51;0.70;96.24
67279;DHT22;54193;53.746;10.058;2022-12-07T04:42:37;0.69;96.34
67279;DHT22;54193;53.746;10.058;2022-12-07T04:45:23;0.63;96.29
67279;DHT22;54193;53.746;10.058;2022-12-07T04:48:08;0.62;96.33
67279;DHT22;54193;53.746;10.058;2022-12-07T04:50:54;0.62;96.35
67279;DHT22;54193;53.746;10.058;2022-12-07T04:53:40;0.59;96.28
67279;DHT22;54193;53.746;10.058;2022-12-07T04:56:25;0.53;96.45
67279;DHT22;54193;53.746;10.058;2022-12-07T04:59:13;0.52;96.29
67279;DHT22;54193;53.746;10.058;2022-12-07T05:01:59;0.45;96.17
67279;DHT22;54193;53.746;10.058;2022-12-07T05:04:45;0.37;96.19
67279;DHT22;54193;53.746;10.058;2022-12-07T05:07:31;0.41;96.39
67279;DHT22;54193;53.746;10.058;2022-12-07T05:10:16;0.45;96.46
67279;DHT22;54193;53.746;10.058;2022-12-07T05:13:02;0.38;96.45
67279;DHT22;54193;53.746;10.058;2022-12-07T05:15:48;0.39;96.46
67279;DHT22;54193;53.746;10.058;2022-12-07T05:18:33;0.39;96.36
67279;DHT22;54193;53.746;10.058;2022-12-07T05:21:19;0.29;96.38
67279;DHT22;54193;53.746;10.058;2022-12-07T05:24:06;0.29;96.45
67279;DHT22;54193;53.746;10.058;2022-12-07T05:26:52;0.29;96.44
67279;DHT22;54193;53.746;10.058;2022-12-07T05:29:38;0.28;96.44
67279;DHT22;54193;53.746;10.058;2022-12-07T05:32:23;0.24;96.35
67279;DHT22;54193;53.746;10.058;2022-12-07T05:35:09;0.24;96.44
67279;DHT22;54193;53.746;10.058;2022-12-07T05:37:55;0.25;96.32
67279;DHT22;54193;53.746;10.058;2022-12-07T05:40:42;0.22;96.40
67279;DHT22;54193;53.746;10.058;2022-12-07T05:43:28;0.15;96.44
67279;DHT22;54193;53.746;10.058;2022-12-07T05:46:14;0.11;96.21
67279;DHT22;54193;53.746;10.058;2022-12-07T05:49:00;0.14;96.38
67279;DHT22;54193;53.746;10.058;2022-12-07T05:51:46;0.04;96.36
67279;DHT22;54193;53.746;10.058;2022-12-07T05:54:31;0.10;96.74
67279;DHT22;54193;53.746;10.058;2022-12-07T05:57:17;-0.03;96.55
67279;DHT22;54193;53.746;10.058;2022-12-07T06:00:04;-0.02;96.59
67279;DHT22;54193;53.746;10.058;2022-12-07T06:02:50;-0.11;96.45
67279;DHT22;54193;53.746;10.058;2022-12-07T06:05:35;-0.07;96.69
67279;DHT22;54193;53.746;10.058;2022-12-07T06:08:21;-0.11;96.78
67279;DHT22;54193;53.746;10.058;2022-12-07T06:11:07;-0.18;96.58
67279;DHT22;54193;53.746;10.058;2022-12-07T06:14:11;0.01;96.91
67279;DHT22;54193;53.746;10.058;2022-12-07T06:16:58;-0.16;96.69
67279;DHT22;54193;53.746;10.058;2022-12-07T06:19:44;-0.07;96.77
67279;DHT22;54193;53.746;10.058;2022-12-07T06:22:29;-0.03;96.72
67279;DHT22;54193;53.746;10.058;2022-12-07T06:25:15;0.00;96.71
67279;DHT22;54193;53.746;10.058;2022-12-07T06:28:01;0.01;96.77
67279;DHT22;54193;53.746;10.058;2022-12-07T06:30:46;0.07;96.72
67279;DHT22;54193;53.746;10.058;2022-12-07T06:33:32;0.15;96.83
67279;DHT22;54193;53.746;10.058;2022-12-07T06:36:18;0.11;96.69
67279;DHT22;54193;53.746;10.058;2022-12-07T06:39:04;0.14;96.60
67279;DHT22;54193;53.746;10.058;2022-12-07T06:41:50;0.12;96.72
67279;DHT22;54193;53.746;10.058;2022-12-07T06:44:39;0.08;96.54
67279;DHT22;54193;53.746;10.058;2022-12-07T06:47:25;0.12;96.59
67279;DHT22;54193;53.746;10.058;2022-12-07T06:50:11;0.17;96.62
67279;DHT22;54193;53.746;10.058;2022-12-07T06:52:57;0.19;96.54
67279;DHT22;54193;53.746;10.058;2022-12-07T06:55:43;0.28;96.55
67279;DHT22;54193;53.746;10.058;2022-12-07T06:58:29;0.26;96.53
67279;DHT22;54193;53.746;10.058;2022-12-07T07:01:17;0.29;96.56
67279;DHT22;54193;53.746;10.058;2022-12-07T07:04:03;0.37;96.47
67279;DHT22;54193;53.746;10.058;2022-12-07T07:06:49;0.44;96.40
67279;DHT22;54193;53.746;10.058;2022-12-07T07:09:35;0.48;96.41
67279;DHT22;54193;53.746;10.058;2022-12-07T07:12:20;0.46;96.40
67279;DHT22;54193;53.746;10.058;2022-12-07T07:15:06;0.48;96.40
67279;DHT22;54193;53.746;10.058;2022-12-07T07:17:52;0.50;96.42
67279;DHT22;54193;53.746;10.058;2022-12-07T07:20:38;0.59;96.44
67279;DHT22;54193;53.746;10.058;2022-12-07T07:23:24;0.58;96.44
67279;DHT22;54193;53.746;10.058;2022-12-07T07:26:09;0.58;96.40
67279;DHT22;54193;53.746;10.058;2022-12-07T07:28:55;0.65;96.39
67279;DHT22;54193;53.746;10.058;2022-12-07T07:31:41;0.65;96.38
67279;DHT22;54193;53.746;10.058;2022-12-07T07:34:26;0.68;96.38
67279;DHT22;54193;53.746;10.058;2022-12-07T07:37:12;0.69;96.34
67279;DHT22;54193;53.746;10.058;2022-12-07T07:39:58;0.68;96.34
67279;DHT22;54193;53.746;10.058;2022-12-07T07:42:43;0.70;96.37
67279;DHT22;54193;53.746;10.058;2022-12-07T07:45:29;0.76;96.33
67279;DHT22;54193;53.746;10.058;2022-12-07T07:48:15;0.76;96.35
67279;DHT22;54193;53.746;10.058;2022-12-07T07:51:00;0.77;96.33
67279;DHT22;54193;53.746;10.058;2022-12-07T07:53:49;0.84;96.35
67279;DHT22;54193;53.746;10.058;2022-12-07T07:56:35;0.86;96.26
67279;DHT22;54193;53.746;10.058;2022-12-07T07:59:21;0.83;96.24
67279;DHT22;54193;53.746;10.058;2022-12-07T08:02:12;0.81;96.24
67279;DHT22;54193;53.746;10.058;2022-12-07T08:04:58;0.84;96.22
67279;DHT22;54193;53.746;10.058;2022-12-07T08:07:44;0.94;96.29
67279;DHT22;54193;53.746;10.058;2022-12-07T08:10:30;0.88;96.19
67279;DHT22;54193;53.746;10.058;2022-12-07T08:13:17;0.93;96.18
67279;DHT22;54193;53.746;10.058;2022-12-07T08:16:05;0.97;96.28
67279;DHT22;54193;53.746;10.058;2022-12-07T08:18:51;1.01;96.12
67279;DHT22;54193;53.746;10.058;2022-12-07T08:21:37;1.05;96.18
67279;DHT22;54193;53.746;10.058;2022-12-07T08:24:23;1.04;96.19
67279;DHT22;54193;53.746;10.058;2022-12-07T08:27:08;1.04;96.00
67279;DHT22;54193;53.746;10.058;2022-12-07T08:29:54;0.97;96.01
67279;DHT22;54193;53.746;10.058;2022-12-07T08:32:40;0.98;96.08
67279;DHT22;54193;53.746;10.058;2022-12-07T08:35:26;1.00;96.13
67279;DHT22;54193;53.746;10.058;2022-12-07T08:38:11;1.04;96.03
67279;DHT22;54193;53.746;10.058;2022-12-07T08:40:58;1.09;96.06
67279;DHT22;54193;53.746;10.058;2022-12-07T08:43:44;1.18;96.05
67279;DHT22;54193;53.746;10.058;2022-12-07T08:46:49;1.18;95.91
67279;DHT22;54193;53.746;10.058;2022-12-07T08:49:43;1.24;95.84
67279;DHT22;54193;53.746;10.058;2022-12-07T08:52:32;1.28;95.92
67279;DHT22;54193;53.746;10.058;2022-12-07T08:55:18;1.35;95.81
67279;DHT22;54193;53.746;10.058;2022-12-07T08:58:04;1.41;95.94
67279;DHT22;54193;53.746;10.058;2022-12-07T09:00:50;1.42;95.70
67279;DHT22;54193;53.746;10.058;2022-12-07T09:03:35;1.45;95.59
67279;DHT22;54193;53.746;10.058;2022-12-07T09:06:21;1.49;95.86
67279;DHT22;54193;53.746;10.058;2022-12-07T09:09:07;1.56;95.83
67279;DHT22;54193;53.746;10.058;2022-12-07T09:11:53;1.55;95.68
67279;DHT22;54193;53.746;10.058;2022-12-07T09:14:39;1.62;95.84
67279;DHT22;54193;53.746;10.058;2022-12-07T09:17:25;1.72;95.85
67279;DHT22;54193;53.746;10.058;2022-12-07T09:20:12;1.67;95.72
67279;DHT22;54193;53.746;10.058;2022-12-07T09:22:57;1.67;95.53
67279;DHT22;54193;53.746;10.058;2022-12-07T09:25:43;1.74;95.54
67279;DHT22;54193;53.746;10.058;2022-12-07T09:28:30;1.76;95.45
67279;DHT22;54193;53.746;10.058;2022-12-07T09:31:15;1.77;95.68
67279;DHT22;54193;53.746;10.058;2022-12-07T09:34:01;1.77;95.33
67279;DHT22;54193;53.746;10.058;2022-12-07T09:36:47;1.84;95.48
67279;DHT22;54193;53.746;10.058;2022-12-07T09:39:32;1.90;95.11
67279;DHT22;54193;53.746;10.058;2022-12-07T09:42:32;1.99;95.39
67279;DHT22;54193;53.746;10.058;2022-12-07T09:45:22;2.00;95.39
67279;DHT22;54193;53.746;10.058;2022-12-07T09:48:34;2.01;95.21
67279;DHT22;54193;53.746;10.058;2022-12-07T09:51:23;2.13;95.15
67279;DHT22;54193;53.746;10.058;2022-12-07T09:54:13;2.15;95.48
67279;DHT22;54193;53.746;10.058;2022-12-07T09:56:59;2.18;95.07
67279;DHT22;54193;53.746;10.058;2022-12-07T09:59:45;2.22;94.94
67279;DHT22;54193;53.746;10.058;2022-12-07T10:02:41;2.37;95.16
67279;DHT22;54193;53.746;10.058;2022-12-07T10:05:48;2.39;95.02
67279;DHT22;54193;53.746;10.058;2022-12-07T10:08:34;2.50;94.85
67279;DHT22;54193;53.746;10.058;2022-12-07T10:11:20;2.52;95.01
67279;DHT22;54193;53.746;10.058;2022-12-07T10:14:13;2.49;94.93
67279;DHT22;54193;53.746;10.058;2022-12-07T10:16:59;2.57;95.33
67279;DHT22;54193;53.746;10.058;2022-12-07T10:19:44;2.57;95.29
67279;DHT22;54193;53.746;10.058;2022-12-07T10:22:30;2.66;95.18
67279;DHT22;54193;53.746;10.058;2022-12-07T10:25:20;2.62;94.70
67279;DHT22;54193;53.746;10.058;2022-12-07T10:31:16;2.63;94.66
67279;DHT22;54193;53.746;10.058;2022-12-07T10:34:02;2.62;94.62
67279;DHT22;54193;53.746;10.058;2022-12-07T10:36:48;2.66;94.71
67279;DHT22;54193;53.746;10.058;2022-12-07T10:39:41;2.67;94.86
67279;DHT22;54193;53.746;10.058;2022-12-07T10:42:30;2.76;94.77
67279;DHT22;54193;53.746;10.058;2022-12-07T10:45:17;2.75;94.77
67279;DHT22;54193;53.746;10.058;2022-12-07T10:48:20;2.80;94.48
67279;DHT22;54193;53.746;10.058;2022-12-07T10:54:12;2.96;94.72
67279;DHT22;54193;53.746;10.058;2022-12-07T11:00:23;3.04;94.53
67279;DHT22;54193;53.746;10.058;2022-12-07T11:06:14;3.05;94.94
67279;DHT22;54193;53.746;10.058;2022-12-07T11:12:32;3.18;94.21
67279;DHT22;54193;53.746;10.058;2022-12-07T11:15:28;3.22;94.40
67279;DHT22;54193;53.746;10.058;2022-12-07T11:18:27;3.22;94.29
67279;DHT22;54193;53.746;10.058;2022-12-07T11:24:27;3.22;94.20
67279;DHT22;54193;53.746;10.058;2022-12-07T11:27:24;3.28;93.40
67279;DHT22;54193;53.746;10.058;2022-12-07T11:30:18;3.25;92.77
67279;DHT22;54193;53.746;10.058;2022-12-07T11:33:15;3.30;92.46
67279;DHT22;54193;53.746;10.058;2022-12-07T11:38:58;3.34;92.29
67279;DHT22;54193;53.746;10.058;2022-12-07T11:41:48;3.34;91.56
67279;DHT22;54193;53.746;10.058;2022-12-07T11:44:53;3.32;90.78
67279;DHT22;54193;53.746;10.058;2022-12-07T11:47:51;3.38;91.76
67279;DHT22;54193;53.746;10.058;2022-12-07T11:50:45;3.39;93.51
67279;DHT22;54193;53.746;10.058;2022-12-07T11:56:25;3.46;90.30
67279;DHT22;54193;53.746;10.058;2022-12-07T11:59:22;3.52;89.84
67279;DHT22;54193;53.746;10.058;2022-12-07T12:02:19;3.52;89.27
67279;DHT22;54193;53.746;10.058;2022-12-07T12:05:21;3.59;91.29
67279;DHT22;54193;53.746;10.058;2022-12-07T12:08:18;3.56;87.77
67279;DHT22;54193;53.746;10.058;2022-12-07T12:11:23;3.63;88.00
67279;DHT22;54193;53.746;10.058;2022-12-07T12:14:43;3.63;85.85
67279;DHT22;54193;53.746;10.058;2022-12-07T12:17:56;3.68;85.87
67279;DHT22;54193;53.746;10.058;2022-12-07T12:20:52;3.78;85.82
67279;DHT22;54193;53.746;10.058;2022-12-07T12:23:50;3.68;82.02
67279;DHT22;54193;53.746;10.058;2022-12-07T12:26:37;3.65;80.77
67279;DHT22;54193;53.746;10.058;2022-12-07T12:29:34;3.58;78.91
67279;DHT22;54193;53.746;10.058;2022-12-07T12:35:33;3.49;79.11
67279;DHT22;54193;53.746;10.058;2022-12-07T12:38:27;3.49;78.33
67279;DHT22;54193;53.746;10.058;2022-12-07T12:47:51;3.41;76.70
67279;DHT22;54193;53.746;10.058;2022-12-07T12:50:38;3.39;77.85
67279;DHT22;54193;53.746;10.058;2022-12-07T12:53:25;3.46;78.26
67279;DHT22;54193;53.746;10.058;2022-12-07T12:56:27;3.45;77.05
67279;DHT22;54193;53.746;10.058;2022-12-07T12:59:39;3.55;77.05
67279;DHT22;54193;53.746;10.058;2022-12-07T13:02:37;3.58;76.31
67279;DHT22;54193;53.746;10.058;2022-12-07T13:05:33;3.52;73.83
67279;DHT22;54193;53.746;10.058;2022-12-07T13:08:21;3.48;74.38
67279;DHT22;54193;53.746;10.058;2022-12-07T13:11:18;3.55;75.17
67279;DHT22;54193;53.746;10.058;2022-12-07T13:14:51;3.39;72.76
67279;DHT22;54193;53.746;10.058;2022-12-07T13:20:55;3.34;73.69
67279;DHT22;54193;53.746;10.058;2022-12-07T13:23:55;3.34;74.33
67279;DHT22;54193;53.746;10.058;2022-12-07T13:26:43;3.31;75.02
67279;DHT22;54193;53.746;10.058;2022-12-07T13:29:36;3.27;73.65
67279;DHT22;54193;53.746;10.058;2022-12-07T13:32:32;3.17;73.64
67279;DHT22;54193;53.746;10.058;2022-12-07T13:38:33;3.05;74.45
67279;DHT22;54193;53.746;10.058;2022-12-07T13:41:21;3.05;73.79
67279;DHT22;54193;53.746;10.058;2022-12-07T13:44:15;3.05;74.53
67279;DHT22;54193;53.746;10.058;2022-12-07T13:47:06;3.05;73.78
67279;DHT22;54193;53.746;10.058;2022-12-07T13:49:54;3.01;74.03
67279;DHT22;54193;53.746;10.058;2022-12-07T13:52:44;2.99;75.15
67279;DHT22;54193;53.746;10.058;2022-12-07T13:55:30;2.93;75.87
67279;DHT22;54193;53.746;10.058;2022-12-07T13:58:16;2.92;75.71
67279;DHT22;54193;53.746;10.058;2022-12-07T14:01:02;2.83;77.20
67279;DHT22;54193;53.746;10.058;2022-12-07T14:03:48;2.76;76.60
67279;DHT22;54193;53.746;10.058;2022-12-07T14:06:34;2.67;76.21
67279;DHT22;54193;53.746;10.058;2022-12-07T14:09:22;2.66;76.79
67279;DHT22;54193;53.746;10.058;2022-12-07T14:12:08;2.66;76.38
67279;DHT22;54193;53.746;10.058;2022-12-07T14:14:55;2.57;76.24
67279;DHT22;54193;53.746;10.058;2022-12-07T14:17:51;2.52;77.21
67279;DHT22;54193;53.746;10.058;2022-12-07T14:20:39;2.39;77.58
67279;DHT22;54193;53.746;10.058;2022-12-07T14:23:26;2.38;79.07
67279;DHT22;54193;53.746;10.058;2022-12-07T14:26:14;2.28;78.23
67279;DHT22;54193;53.746;10.058;2022-12-07T14:32:20;2.21;76.68
67279;DHT22;54193;53.746;10.058;2022-12-07T14:35:13;2.20;77.55
67279;DHT22;54193;53.746;10.058;2022-12-07T14:37:59;2.20;77.84
67279;DHT22;54193;53.746;10.058;2022-12-07T14:40:45;2.15;78.35
67279;DHT22;54193;53.746;10.058;2022-12-07T14:43:30;2.08;77.43
67279;DHT22;54193;53.746;10.058;2022-12-07T14:46:16;2.01;79.49
67279;DHT22;54193;53.746;10.058;2022-12-07T14:49:01;1.91;80.08
67279;DHT22;54193;53.746;10.058;2022-12-07T14:51:47;1.86;80.33
67279;DHT22;54193;53.746;10.058;2022-12-07T14:54:33;1.72;80.01
67279;DHT22;54193;53.746;10.058;2022-12-07T14:57:18;1.74;79.48
67279;DHT22;54193;53.746;10.058;2022-12-07T15:00:05;1.67;79.69
67279;DHT22;54193;53.746;10.058;2022-12-07T15:02:51;1.56;80.49
67279;DHT22;54193;53.746;10.058;2022-12-07T15:05:37;1.38;80.56
67279;DHT22;54193;53.746;10.058;2022-12-07T15:08:23;1.36;82.22
67279;DHT22;54193;53.746;10.058;2022-12-07T15:11:13;1.21;81.99
67279;DHT22;54193;53.746;10.058;2022-12-07T15:13:59;1.09;83.62
67279;DHT22;54193;53.746;10.058;2022-12-07T15:16:53;1.00;83.40
67279;DHT22;54193;53.746;10.058;2022-12-07T15:19:39;0.87;83.76
67279;DHT22;54193;53.746;10.058;2022-12-07T15:22:24;0.79;83.44
67279;DHT22;54193;53.746;10.058;2022-12-07T15:25:13;0.75;83.97
67279;DHT22;54193;53.746;10.058;2022-12-07T15:27:59;0.60;84.47
67279;DHT22;54193;53.746;10.058;2022-12-07T15:30:45;0.58;84.72
67279;DHT22;54193;53.746;10.058;2022-12-07T15:33:31;0.48;85.61
67279;DHT22;54193;53.746;10.058;2022-12-07T15:36:22;0.31;85.62
67279;DHT22;54193;53.746;10.058;2022-12-07T15:39:09;0.33;85.16
67279;DHT22;54193;53.746;10.058;2022-12-07T15:41:55;0.26;85.60
67279;DHT22;54193;53.746;10.058;2022-12-07T15:44:41;0.22;85.78
67279;DHT22;54193;53.746;10.058;2022-12-07T15:47:45;0.15;85.95
67279;DHT22;54193;53.746;10.058;2022-12-07T15:50:30;0.07;85.78
67279;DHT22;54193;53.746;10.058;2022-12-07T15:53:16;-0.16;86.86
67279;DHT22;54193;53.746;10.058;2022-12-07T15:56:06;-0.18;87.62
67279;DHT22;54193;53.746;10.058;2022-12-07T15:58:52;-0.27;88.24
67279;DHT22;54193;53.746;10.058;2022-12-07T16:01:38;-0.37;88.56
67279;DHT22;54193;53.746;10.058;2022-12-07T16:04:23;-0.48;88.96
67279;DHT22;54193;53.746;10.058;2022-12-07T16:07:09;-0.54;89.44
67279;DHT22;54193;53.746;10.058;2022-12-07T16:09:56;-0.53;89.58
67279;DHT22;54193;53.746;10.058;2022-12-07T16:12:42;-0.60;89.33
67279;DHT22;54193;53.746;10.058;2022-12-07T16:15:28;-0.58;89.04
67279;DHT22;54193;53.746;10.058;2022-12-07T16:18:13;-0.64;89.88
67279;DHT22;54193;53.746;10.058;2022-12-07T16:20:59;-0.71;90.13
67279;DHT22;54193;53.746;10.058;2022-12-07T16:23:45;-0.79;90.37
67279;DHT22;54193;53.746;10.058;2022-12-07T16:26:31;-0.76;90.57
67279;DHT22;54193;53.746;10.058;2022-12-07T16:29:18;-0.86;90.79
67279;DHT22;54193;53.746;10.058;2022-12-07T16:32:04;-0.81;90.73
67279;DHT22;54193;53.746;10.058;2022-12-07T16:34:50;-0.78;90.87
67279;DHT22;54193;53.746;10.058;2022-12-07T16:37:36;-0.62;90.19
67279;DHT22;54193;53.746;10.058;2022-12-07T16:40:21;-0.60;89.71
67279;DHT22;54193;53.746;10.058;2022-12-07T16:43:08;-0.55;89.11
67279;DHT22;54193;53.746;10.058;2022-12-07T16:45:55;-0.55;89.95
67279;DHT22;54193;53.746;10.058;2022-12-07T16:48:41;-0.35;89.05
67279;DHT22;54193;53.746;10.058;2022-12-07T16:51:27;-0.33;89.27
67279;DHT22;54193;53.746;10.058;2022-12-07T16:54:13;-0.28;89.00
67279;DHT22;54193;53.746;10.058;2022-12-07T16:56:58;-0.21;88.58
67279;DHT22;54193;53.746;10.058;2022-12-07T16:59:44;-0.20;88.12
67279;DHT22;54193;53.746;10.058;2022-12-07T17:02:30;-0.18;88.54
67279;DHT22;54193;53.746;10.058;2022-12-07T17:05:16;-0.23;88.37
67279;DHT22;54193;53.746;10.058;2022-12-07T17:08:01;-0.24;88.04
67279;DHT22;54193;53.746;10.058;2022-12-07T17:10:47;-0.24;87.77
67279;DHT22;54193;53.746;10.058;2022-12-07T17:13:33;-0.27;88.17
67279;DHT22;54193;53.746;10.058;2022-12-07T17:16:37;-0.33;88.08
67279;DHT22;54193;53.746;10.058;2022-12-07T17:19:23;-0.27;87.41
67279;DHT22;54193;53.746;10.058;2022-12-07T17:22:09;-0.28;88.12
67279;DHT22;54193;53.746;10.058;2022-12-07T17:24:57;-0.28;88.65
67279;DHT22;54193;53.746;10.058;2022-12-07T17:27:44;-0.23;88.59
67279;DHT22;54193;53.746;10.058;2022-12-07T17:30:30;-0.24;88.49
67279;DHT22;54193;53.746;10.058;2022-12-07T17:33:16;-0.24;88.14
67279;DHT22;54193;53.746;10.058;2022-12-07T17:36:20;-0.13;88.16
67279;DHT22;54193;53.746;10.058;2022-12-07T17:39:07;-0.05;88.00
67279;DHT22;54193;53.746;10.058;2022-12-07T17:41:54;-0.06;87.86
67279;DHT22;54193;53.746;10.058;2022-12-07T17:44:58;0.03;87.78
67279;DHT22;54193;53.746;10.058;2022-12-07T17:47:44;0.07;87.74
67279;DHT22;54193;53.746;10.058;2022-12-07T17:50:30;0.11;87.55
67279;DHT22;54193;53.746;10.058;2022-12-07T17:53:34;0.19;87.00
67279;DHT22;54193;53.746;10.058;2022-12-07T17:56:20;0.19;87.75
67279;DHT22;54193;53.746;10.058;2022-12-07T17:59:06;0.18;87.94
67279;DHT22;54193;53.746;10.058;2022-12-07T18:01:52;0.25;88.09
67279;DHT22;54193;53.746;10.058;2022-12-07T18:04:37;0.25;88.37
67279;DHT22;54193;53.746;10.058;2022-12-07T18:07:24;0.25;88.58
67279;DHT22;54193;53.746;10.058;2022-12-07T18:10:10;0.24;88.88
67279;DHT22;54193;53.746;10.058;2022-12-07T18:12:56;0.18;88.87
67279;DHT22;54193;53.746;10.058;2022-12-07T18:16:23;0.12;89.16
67279;DHT22;54193;53.746;10.058;2022-12-07T18:19:09;0.04;89.25
67279;DHT22;54193;53.746;10.058;2022-12-07T18:21:57;-0.05;89.46
67279;DHT22;54193;53.746;10.058;2022-12-07T18:24:43;-0.06;89.72
67279;DHT22;54193;53.746;10.058;2022-12-07T18:27:29;-0.17;89.93
67279;DHT22;54193;53.746;10.058;2022-12-07T18:30:14;-0.23;90.25
67279;DHT22;54193;53.746;10.058;2022-12-07T18:33:00;-0.26;90.29
67279;DHT22;54193;53.746;10.058;2022-12-07T18:35:46;-0.33;90.28
67279;DHT22;54193;53.746;10.058;2022-12-07T18:38:32;-0.35;90.46
67279;DHT22;54193;53.746;10.058;2022-12-07T18:41:18;-0.34;90.38
67279;DHT22;54193;53.746;10.058;2022-12-07T18:44:05;-0.37;90.35
67279;DHT22;54193;53.746;10.058;2022-12-07T18:46:51;-0.37;90.53